sensor_id;sensor_type;location;lat;lon;timestamp;pressure;altitude;pressure_sealevel;temperature;humidity
76137;BME280;68622;53.128;17.966;2023-06-10T00:00:57;101309.05;;;19.48;54.44
76137;BME280;68622;53.128;17.966;2023-06-10T00:03:44;101312.38;;;19.50;54.04
76137;BME280;68622;53.128;17.966;2023-06-10T00:06:11;101313.73;;;19.50;54.02
76137;BME280;68622;53.128;17.966;2023-06-10T00:08:37;101313.14;;;19.51;53.96
76137;BME280;68622;53.128;17.966;2023-06-10T00:11:06;101312.48;;;19.52;53.63
76137;BME280;68622;53.128;17.966;2023-06-10T00:13:32;101317.89;;;19.52;53.54
76137;BME280;68622;53.128;17.966;2023-06-10T00:15:59;101318.32;;;19.50;53.66
76137;BME280;68622;53.128;17.966;2023-06-10T00:18:26;101318.55;;;19.50;53.54
76137;BME280;68622;53.128;17.966;2023-06-10T00:20:53;101319.65;;;19.48;53.75
76137;BME280;68622;53.128;17.966;2023-06-10T00:23:21;101320.77;;;19.47;53.63
76137;BME280;68622;53.128;17.966;2023-06-10T00:25:49;101319.77;;;19.45;53.49
76137;BME280;68622;53.128;17.966;2023-06-10T00:28:15;101317.80;;;19.44;53.55
76137;BME280;68622;53.128;17.966;2023-06-10T00:30:42;101322.77;;;19.43;53.15
76137;BME280;68622;53.128;17.966;2023-06-10T00:33:10;101320.09;;;19.42;53.53
76137;BME280;68622;53.128;17.966;2023-06-10T00:35:36;101323.65;;;19.42;53.24
76137;BME280;68622;53.128;17.966;2023-06-10T00:38:03;101323.89;;;19.41;53.23
76137;BME280;68622;53.128;17.966;2023-06-10T00:40:29;101324.33;;;19.41;53.60
76137;BME280;68622;53.128;17.966;2023-06-10T00:42:58;101327.58;;;19.40;53.29
76137;BME280;68622;53.128;17.966;2023-06-10T00:45:24;101328.43;;;19.40;53.38
76137;BME280;68622;53.128;17.966;2023-06-10T00:47:51;101329.65;;;19.40;54.33
76137;BME280;68622;53.128;17.966;2023-06-10T00:50:18;101330.33;;;19.37;53.73
76137;BME280;68622;53.128;17.966;2023-06-10T00:52:45;101334.65;;;19.35;53.69
76137;BME280;68622;53.128;17.966;2023-06-10T00:55:16;101340.41;;;19.34;53.51
76137;BME280;68622;53.128;17.966;2023-06-10T00:57:44;101341.10;;;19.32;53.60
76137;BME280;68622;53.128;17.966;2023-06-10T01:00:12;101343.13;;;19.33;53.36
76137;BME280;68622;53.128;17.966;2023-06-10T01:02:39;101346.77;;;19.32;53.48
76137;BME280;68622;53.128;17.966;2023-06-10T01:05:07;101349.70;;;19.32;53.62
76137;BME280;68622;53.128;17.966;2023-06-10T01:07:45;101345.88;;;19.32;53.55
76137;BME280;68622;53.128;17.966;2023-06-10T01:15:31;101354.71;;;19.35;53.20
76137;BME280;68622;53.128;17.966;2023-06-10T01:18:03;101351.64;;;19.36;52.97
76137;BME280;68622;53.128;17.966;2023-06-10T01:20:32;101351.39;;;19.35;53.38
76137;BME280;68622;53.128;17.966;2023-06-10T01:23:00;101347.41;;;19.37;52.91
76137;BME280;68622;53.128;17.966;2023-06-10T01:25:28;101354.00;;;19.40;52.75
76137;BME280;68622;53.128;17.966;2023-06-10T01:30:55;101352.09;;;19.42;52.55
76137;BME280;68622;53.128;17.966;2023-06-10T01:33:45;101352.73;;;19.44;52.65
76137;BME280;68622;53.128;17.966;2023-06-10T01:36:13;101354.58;;;19.45;52.81
76137;BME280;68622;53.128;17.966;2023-06-10T01:38:44;101355.83;;;19.45;52.46
76137;BME280;68622;53.128;17.966;2023-06-10T01:41:16;101360.09;;;19.45;52.58
76137;BME280;68622;53.128;17.966;2023-06-10T01:43:45;101364.37;;;19.46;52.31
76137;BME280;68622;53.128;17.966;2023-06-10T01:46:15;101363.95;;;19.45;52.36
76137;BME280;68622;53.128;17.966;2023-06-10T01:48:47;101366.81;;;19.44;52.32
76137;BME280;68622;53.128;17.966;2023-06-10T01:51:15;101375.50;;;19.44;52.51
76137;BME280;68622;53.128;17.966;2023-06-10T01:53:42;101376.06;;;19.43;52.17
76137;BME280;68622;53.128;17.966;2023-06-10T01:56:09;101380.81;;;19.41;52.30
76137;BME280;68622;53.128;17.966;2023-06-10T01:58:36;101377.72;;;19.40;52.31
76137;BME280;68622;53.128;17.966;2023-06-10T02:01:02;101377.41;;;19.41;52.09
76137;BME280;68622;53.128;17.966;2023-06-10T02:03:30;101380.03;;;19.40;52.25
76137;BME280;68622;53.128;17.966;2023-06-10T02:05:56;101384.89;;;19.39;52.14
76137;BME280;68622;53.128;17.966;2023-06-10T02:08:23;101386.36;;;19.40;52.17
76137;BME280;68622;53.128;17.966;2023-06-10T02:10:49;101387.63;;;19.40;51.95
76137;BME280;68622;53.128;17.966;2023-06-10T02:13:16;101387.66;;;19.38;52.26
76137;BME280;68622;53.128;17.966;2023-06-10T02:15:43;101388.67;;;19.38;51.88
76137;BME280;68622;53.128;17.966;2023-06-10T02:18:09;101390.86;;;19.36;52.37
76137;BME280;68622;53.128;17.966;2023-06-10T02:20:38;101393.73;;;19.34;52.27
76137;BME280;68622;53.128;17.966;2023-06-10T02:23:05;101393.21;;;19.33;52.20
76137;BME280;68622;53.128;17.966;2023-06-10T02:25:31;101387.41;;;19.32;52.16
76137;BME280;68622;53.128;17.966;2023-06-10T02:27:58;101388.70;;;19.30;52.04
76137;BME280;68622;53.128;17.966;2023-06-10T02:30:25;101390.42;;;19.29;52.28
76137;BME280;68622;53.128;17.966;2023-06-10T02:32:51;101391.28;;;19.27;52.10
76137;BME280;68622;53.128;17.966;2023-06-10T02:35:19;101389.49;;;19.29;51.94
76137;BME280;68622;53.128;17.966;2023-06-10T02:37:46;101381.16;;;19.27;51.93
76137;BME280;68622;53.128;17.966;2023-06-10T02:40:13;101386.59;;;19.30;51.88
76137;BME280;68622;53.128;17.966;2023-06-10T02:42:39;101390.48;;;19.31;51.60
76137;BME280;68622;53.128;17.966;2023-06-10T02:45:07;101395.33;;;19.32;51.62
76137;BME280;68622;53.128;17.966;2023-06-10T02:47:38;101400.77;;;19.32;51.42
76137;BME280;68622;53.128;17.966;2023-06-10T02:50:06;101407.54;;;19.31;51.69
76137;BME280;68622;53.128;17.966;2023-06-10T02:52:37;101410.05;;;19.31;51.56
76137;BME280;68622;53.128;17.966;2023-06-10T02:55:04;101417.73;;;19.30;51.54
76137;BME280;68622;53.128;17.966;2023-06-10T02:57:31;101419.05;;;19.27;51.56
76137;BME280;68622;53.128;17.966;2023-06-10T02:59:58;101424.75;;;19.25;51.62
76137;BME280;68622;53.128;17.966;2023-06-10T03:02:27;101428.07;;;19.26;51.50
76137;BME280;68622;53.128;17.966;2023-06-10T03:04:55;101436.44;;;19.23;51.89
76137;BME280;68622;53.128;17.966;2023-06-10T03:07:22;101441.81;;;19.24;51.58
76137;BME280;68622;53.128;17.966;2023-06-10T03:09:50;101444.86;;;19.22;51.96
76137;BME280;68622;53.128;17.966;2023-06-10T03:12:17;101451.45;;;19.21;51.84
76137;BME280;68622;53.128;17.966;2023-06-10T03:14:46;101451.59;;;19.22;51.52
76137;BME280;68622;53.128;17.966;2023-06-10T03:17:13;101455.19;;;19.21;51.63
76137;BME280;68622;53.128;17.966;2023-06-10T03:19:41;101454.23;;;19.15;52.30
76137;BME280;68622;53.128;17.966;2023-06-10T03:22:13;101460.55;;;19.13;52.06
76137;BME280;68622;53.128;17.966;2023-06-10T03:24:43;101465.29;;;19.11;52.19
76137;BME280;68622;53.128;17.966;2023-06-10T03:27:13;101463.80;;;19.10;52.37
76137;BME280;68622;53.128;17.966;2023-06-10T03:29:41;101472.55;;;19.05;52.61
76137;BME280;68622;53.128;17.966;2023-06-10T03:32:08;101470.30;;;18.96;52.92
76137;BME280;68622;53.128;17.966;2023-06-10T03:34:36;101470.36;;;18.99;52.36
76137;BME280;68622;53.128;17.966;2023-06-10T03:37:02;101475.37;;;19.09;52.39
76137;BME280;68622;53.128;17.966;2023-06-10T03:39:29;101477.52;;;19.21;51.90
76137;BME280;68622;53.128;17.966;2023-06-10T03:41:57;101485.84;;;19.33;51.72
76137;BME280;68622;53.128;17.966;2023-06-10T03:44:24;101487.00;;;19.43;51.38
76137;BME280;68622;53.128;17.966;2023-06-10T03:46:52;101486.74;;;19.48;51.06
76137;BME280;68622;53.128;17.966;2023-06-10T03:49:19;101488.78;;;19.58;50.89
76137;BME280;68622;53.128;17.966;2023-06-10T03:51:46;101492.70;;;19.70;50.51
76137;BME280;68622;53.128;17.966;2023-06-10T03:54:14;101497.30;;;19.85;50.21
76137;BME280;68622;53.128;17.966;2023-06-10T03:56:41;101494.91;;;19.97;49.83
76137;BME280;68622;53.128;17.966;2023-06-10T03:59:07;101503.57;;;20.04;49.67
76137;BME280;68622;53.128;17.966;2023-06-10T04:01:34;101509.55;;;20.10;49.26
76137;BME280;68622;53.128;17.966;2023-06-10T04:04:04;101506.04;;;20.11;48.99
76137;BME280;68622;53.128;17.966;2023-06-10T04:06:34;101513.57;;;20.09;48.62
76137;BME280;68622;53.128;17.966;2023-06-10T04:09:01;101512.29;;;20.12;48.61
76137;BME280;68622;53.128;17.966;2023-06-10T04:11:28;101514.77;;;20.20;48.39
76137;BME280;68622;53.128;17.966;2023-06-10T04:13:56;101517.73;;;20.27;48.11
76137;BME280;68622;53.128;17.966;2023-06-10T04:16:22;101522.55;;;20.34;47.85
76137;BME280;68622;53.128;17.966;2023-06-10T04:18:49;101522.70;;;20.37;47.66
76137;BME280;68622;53.128;17.966;2023-06-10T04:21:17;101522.49;;;20.27;47.19
76137;BME280;68622;53.128;17.966;2023-06-10T04:23:44;101524.70;;;20.25;46.99
76137;BME280;68622;53.128;17.966;2023-06-10T04:26:10;101524.45;;;20.25;46.90
76137;BME280;68622;53.128;17.966;2023-06-10T04:28:38;101524.43;;;20.24;47.01
76137;BME280;68622;53.128;17.966;2023-06-10T04:31:05;101527.55;;;20.23;46.79
76137;BME280;68622;53.128;17.966;2023-06-10T04:33:32;101529.65;;;20.25;46.70
76137;BME280;68622;53.128;17.966;2023-06-10T04:36:00;101532.97;;;20.24;46.47
76137;BME280;68622;53.128;17.966;2023-06-10T04:38:28;101534.17;;;20.22;46.27
76137;BME280;68622;53.128;17.966;2023-06-10T04:40:56;101533.63;;;20.20;45.95
76137;BME280;68622;53.128;17.966;2023-06-10T04:43:23;101536.58;;;20.14;45.66
76137;BME280;68622;53.128;17.966;2023-06-10T04:45:50;101537.78;;;20.13;45.26
76137;BME280;68622;53.128;17.966;2023-06-10T04:48:17;101542.09;;;20.11;45.41
76137;BME280;68622;53.128;17.966;2023-06-10T04:50:43;101541.75;;;20.12;45.29
76137;BME280;68622;53.128;17.966;2023-06-10T04:53:10;101541.20;;;20.06;45.04
76137;BME280;68622;53.128;17.966;2023-06-10T04:55:37;101541.57;;;20.06;44.98
76137;BME280;68622;53.128;17.966;2023-06-10T04:58:04;101542.83;;;20.05;44.69
76137;BME280;68622;53.128;17.966;2023-06-10T05:00:31;101541.50;;;20.09;44.88
76137;BME280;68622;53.128;17.966;2023-06-10T05:02:57;101543.79;;;20.13;44.81
76137;BME280;68622;53.128;17.966;2023-06-10T05:05:24;101546.41;;;20.11;44.71
76137;BME280;68622;53.128;17.966;2023-06-10T05:07:51;101551.58;;;20.15;44.63
76137;BME280;68622;53.128;17.966;2023-06-10T05:10:17;101547.20;;;20.19;44.59
76137;BME280;68622;53.128;17.966;2023-06-10T05:12:45;101553.27;;;20.20;44.46
76137;BME280;68622;53.128;17.966;2023-06-10T05:15:11;101551.61;;;20.24;44.45
76137;BME280;68622;53.128;17.966;2023-06-10T05:17:38;101551.33;;;20.25;44.34
76137;BME280;68622;53.128;17.966;2023-06-10T05:20:05;101553.80;;;20.25;44.10
76137;BME280;68622;53.128;17.966;2023-06-10T05:22:32;101560.30;;;20.25;44.25
76137;BME280;68622;53.128;17.966;2023-06-10T05:24:59;101559.48;;;20.24;44.28
76137;BME280;68622;53.128;17.966;2023-06-10T05:27:26;101560.26;;;20.24;44.08
76137;BME280;68622;53.128;17.966;2023-06-10T05:29:53;101560.63;;;20.24;44.27
76137;BME280;68622;53.128;17.966;2023-06-10T05:32:19;101556.73;;;20.22;44.04
76137;BME280;68622;53.128;17.966;2023-06-10T05:34:46;101553.21;;;20.19;44.06
76137;BME280;68622;53.128;17.966;2023-06-10T05:37:13;101559.23;;;20.17;44.13
76137;BME280;68622;53.128;17.966;2023-06-10T05:39:40;101558.97;;;20.15;44.02
76137;BME280;68622;53.128;17.966;2023-06-10T05:42:07;101560.46;;;20.15;44.03
76137;BME280;68622;53.128;17.966;2023-06-10T05:44:34;101557.98;;;20.15;43.82
76137;BME280;68622;53.128;17.966;2023-06-10T05:47:01;101556.82;;;20.16;43.87
76137;BME280;68622;53.128;17.966;2023-06-10T05:49:28;101555.85;;;20.19;43.95
76137;BME280;68622;53.128;17.966;2023-06-10T05:51:55;101553.70;;;20.21;44.03
76137;BME280;68622;53.128;17.966;2023-06-10T05:54:23;101553.33;;;20.21;44.12
76137;BME280;68622;53.128;17.966;2023-06-10T05:56:49;101547.20;;;20.24;44.65
76137;BME280;68622;53.128;17.966;2023-06-10T05:59:16;101546.86;;;20.25;45.20
76137;BME280;68622;53.128;17.966;2023-06-10T06:01:42;101550.52;;;20.26;44.91
76137;BME280;68622;53.128;17.966;2023-06-10T06:04:09;101553.70;;;20.29;45.01
76137;BME280;68622;53.128;17.966;2023-06-10T06:06:38;101551.13;;;20.28;45.00
76137;BME280;68622;53.128;17.966;2023-06-10T06:09:05;101554.02;;;20.30;44.81
76137;BME280;68622;53.128;17.966;2023-06-10T06:11:33;101554.80;;;20.33;44.83
76137;BME280;68622;53.128;17.966;2023-06-10T06:14:00;101555.29;;;20.35;45.52
76137;BME280;68622;53.128;17.966;2023-06-10T06:16:27;101561.03;;;20.37;45.57
76137;BME280;68622;53.128;17.966;2023-06-10T06:18:53;101560.02;;;20.38;45.78
76137;BME280;68622;53.128;17.966;2023-06-10T06:21:20;101559.49;;;20.32;46.61
76137;BME280;68622;53.128;17.966;2023-06-10T06:23:46;101560.77;;;20.32;47.37
76137;BME280;68622;53.128;17.966;2023-06-10T06:26:13;101562.12;;;20.36;46.75
76137;BME280;68622;53.128;17.966;2023-06-10T06:28:40;101562.38;;;20.45;46.73
76137;BME280;68622;53.128;17.966;2023-06-10T06:31:07;101567.08;;;20.59;46.71
76137;BME280;68622;53.128;17.966;2023-06-10T06:33:33;101568.60;;;20.76;46.51
76137;BME280;68622;53.128;17.966;2023-06-10T06:36:00;101568.27;;;20.98;46.04
76137;BME280;68622;53.128;17.966;2023-06-10T06:38:27;101569.66;;;21.04;46.40
76137;BME280;68622;53.128;17.966;2023-06-10T06:40:54;101567.16;;;21.31;45.87
76137;BME280;68622;53.128;17.966;2023-06-10T06:43:20;101567.73;;;21.51;45.78
76137;BME280;68622;53.128;17.966;2023-06-10T06:46:06;101561.71;;;21.88;45.37
76137;BME280;68622;53.128;17.966;2023-06-10T06:48:32;101565.54;;;22.24;44.21
76137;BME280;68622;53.128;17.966;2023-06-10T06:50:59;101564.86;;;22.62;43.97
76137;BME280;68622;53.128;17.966;2023-06-10T06:53:25;101565.11;;;22.95;42.97
76137;BME280;68622;53.128;17.966;2023-06-10T06:55:52;101563.59;;;23.25;41.58
76137;BME280;68622;53.128;17.966;2023-06-10T06:58:19;101566.23;;;23.49;41.28
76137;BME280;68622;53.128;17.966;2023-06-10T07:00:45;101569.52;;;23.62;41.45
76137;BME280;68622;53.128;17.966;2023-06-10T07:03:12;101572.17;;;23.70;41.36
76137;BME280;68622;53.128;17.966;2023-06-10T07:05:38;101569.55;;;23.70;40.66
76137;BME280;68622;53.128;17.966;2023-06-10T07:08:05;101571.02;;;23.73;39.58
76137;BME280;68622;53.128;17.966;2023-06-10T07:10:32;101570.30;;;23.80;39.45
76137;BME280;68622;53.128;17.966;2023-06-10T07:12:59;101564.50;;;23.96;39.00
76137;BME280;68622;53.128;17.966;2023-06-10T07:15:26;101571.61;;;24.20;38.48
76137;BME280;68622;53.128;17.966;2023-06-10T07:17:52;101575.23;;;24.35;38.04
76137;BME280;68622;53.128;17.966;2023-06-10T07:20:19;101572.23;;;24.44;37.45
76137;BME280;68622;53.128;17.966;2023-06-10T07:22:46;101572.40;;;24.65;37.01
76137;BME280;68622;53.128;17.966;2023-06-10T07:25:12;101571.18;;;24.82;36.69
76137;BME280;68622;53.128;17.966;2023-06-10T07:27:39;101573.77;;;24.96;36.79
76137;BME280;68622;53.128;17.966;2023-06-10T07:30:06;101571.80;;;25.10;36.61
76137;BME280;68622;53.128;17.966;2023-06-10T07:32:36;101576.95;;;25.26;36.33
76137;BME280;68622;53.128;17.966;2023-06-10T07:35:02;101574.86;;;25.32;35.64
76137;BME280;68622;53.128;17.966;2023-06-10T07:37:29;101574.23;;;25.38;35.83
76137;BME280;68622;53.128;17.966;2023-06-10T07:39:56;101574.59;;;25.43;35.67
76137;BME280;68622;53.128;17.966;2023-06-10T07:42:23;101574.77;;;25.44;35.69
76137;BME280;68622;53.128;17.966;2023-06-10T07:44:49;101578.97;;;25.49;35.71
76137;BME280;68622;53.128;17.966;2023-06-10T07:47:16;101579.70;;;25.52;35.39
76137;BME280;68622;53.128;17.966;2023-06-10T07:49:43;101580.34;;;25.60;35.58
76137;BME280;68622;53.128;17.966;2023-06-10T07:52:09;101573.71;;;25.66;35.68
76137;BME280;68622;53.128;17.966;2023-06-10T07:54:36;101573.52;;;25.72;35.26
76137;BME280;68622;53.128;17.966;2023-06-10T07:57:02;101575.55;;;25.77;35.19
76137;BME280;68622;53.128;17.966;2023-06-10T07:59:29;101577.98;;;25.88;35.72
76137;BME280;68622;53.128;17.966;2023-06-10T08:01:56;101578.70;;;25.96;35.25
76137;BME280;68622;53.128;17.966;2023-06-10T08:04:23;101582.23;;;25.95;35.19
76137;BME280;68622;53.128;17.966;2023-06-10T08:06:49;101587.61;;;25.83;34.55
76137;BME280;68622;53.128;17.966;2023-06-10T08:09:16;101584.97;;;25.84;34.82
76137;BME280;68622;53.128;17.966;2023-06-10T08:11:43;101581.52;;;25.86;34.57
76137;BME280;68622;53.128;17.966;2023-06-10T08:14:09;101583.77;;;25.94;34.53
76137;BME280;68622;53.128;17.966;2023-06-10T08:16:36;101583.67;;;25.95;33.88
76137;BME280;68622;53.128;17.966;2023-06-10T08:19:03;101581.39;;;26.11;34.58
76137;BME280;68622;53.128;17.966;2023-06-10T08:21:29;101584.11;;;26.19;34.08
76137;BME280;68622;53.128;17.966;2023-06-10T08:23:57;101587.91;;;26.25;34.30
76137;BME280;68622;53.128;17.966;2023-06-10T08:26:23;101587.77;;;26.31;34.03
76137;BME280;68622;53.128;17.966;2023-06-10T08:28:51;101585.23;;;26.39;34.46
76137;BME280;68622;53.128;17.966;2023-06-10T08:31:17;101586.04;;;26.50;34.57
76137;BME280;68622;53.128;17.966;2023-06-10T08:33:44;101587.05;;;26.51;33.36
76137;BME280;68622;53.128;17.966;2023-06-10T08:36:10;101583.80;;;26.56;33.85
76137;BME280;68622;53.128;17.966;2023-06-10T08:38:37;101585.94;;;26.60;33.53
76137;BME280;68622;53.128;17.966;2023-06-10T08:41:05;101584.36;;;26.67;33.90
76137;BME280;68622;53.128;17.966;2023-06-10T08:46:03;101589.45;;;26.45;32.75
76137;BME280;68622;53.128;17.966;2023-06-10T08:48:30;101597.73;;;26.48;32.94
76137;BME280;68622;53.128;17.966;2023-06-10T08:50:58;101593.07;;;26.49;33.02
76137;BME280;68622;53.128;17.966;2023-06-10T08:53:26;101590.96;;;26.46;33.19
76137;BME280;68622;53.128;17.966;2023-06-10T08:55:55;101591.48;;;26.42;33.19
76137;BME280;68622;53.128;17.966;2023-06-10T08:58:25;101589.60;;;26.40;33.14
76137;BME280;68622;53.128;17.966;2023-06-10T09:00:54;101589.48;;;26.45;33.29
76137;BME280;68622;53.128;17.966;2023-06-10T09:03:21;101596.96;;;26.49;32.83
76137;BME280;68622;53.128;17.966;2023-06-10T09:05:48;101596.09;;;26.46;32.91
76137;BME280;68622;53.128;17.966;2023-06-10T09:08:16;101593.27;;;26.40;32.56
76137;BME280;68622;53.128;17.966;2023-06-10T09:10:43;101593.80;;;26.45;32.59
76137;BME280;68622;53.128;17.966;2023-06-10T09:13:10;101599.16;;;26.37;32.06
76137;BME280;68622;53.128;17.966;2023-06-10T09:15:36;101595.08;;;26.29;31.88
76137;BME280;68622;53.128;17.966;2023-06-10T09:18:03;101599.77;;;26.19;31.51
76137;BME280;68622;53.128;17.966;2023-06-10T09:20:31;101601.21;;;26.11;31.35
76137;BME280;68622;53.128;17.966;2023-06-10T09:22:59;101594.98;;;26.05;31.42
76137;BME280;68622;53.128;17.966;2023-06-10T09:25:37;101600.27;;;25.87;31.72
76137;BME280;68622;53.128;17.966;2023-06-10T09:28:04;101593.78;;;25.92;32.31
76137;BME280;68622;53.128;17.966;2023-06-10T09:30:33;101594.65;;;26.05;32.65
76137;BME280;68622;53.128;17.966;2023-06-10T09:33:02;101599.05;;;26.15;32.41
76137;BME280;68622;53.128;17.966;2023-06-10T09:35:30;101590.12;;;26.19;32.17
76137;BME280;68622;53.128;17.966;2023-06-10T09:37:59;101591.31;;;26.26;32.64
76137;BME280;68622;53.128;17.966;2023-06-10T09:40:27;101593.80;;;26.35;32.38
76137;BME280;68622;53.128;17.966;2023-06-10T09:43:00;101595.67;;;26.26;31.79
76137;BME280;68622;53.128;17.966;2023-06-10T09:45:30;101590.18;;;26.30;31.23
76137;BME280;68622;53.128;17.966;2023-06-10T09:48:00;101588.60;;;26.28;31.72
76137;BME280;68622;53.128;17.966;2023-06-10T09:50:27;101593.27;;;26.30;31.83
76137;BME280;68622;53.128;17.966;2023-06-10T09:52:54;101593.20;;;26.34;31.66
76137;BME280;68622;53.128;17.966;2023-06-10T09:55:21;101597.30;;;26.39;30.92
76137;BME280;68622;53.128;17.966;2023-06-10T09:57:53;101593.10;;;26.30;31.06
76137;BME280;68622;53.128;17.966;2023-06-10T10:00:22;101594.56;;;26.43;31.65
76137;BME280;68622;53.128;17.966;2023-06-10T10:02:50;101598.10;;;26.42;30.72
76137;BME280;68622;53.128;17.966;2023-06-10T10:05:21;101596.85;;;26.40;30.11
76137;BME280;68622;53.128;17.966;2023-06-10T10:07:48;101596.70;;;26.42;28.17
76137;BME280;68622;53.128;17.966;2023-06-10T10:10:17;101604.00;;;26.37;28.99
76137;BME280;68622;53.128;17.966;2023-06-10T10:12:46;101598.65;;;26.39;28.68
76137;BME280;68622;53.128;17.966;2023-06-10T10:15:16;101594.31;;;26.42;28.62
76137;BME280;68622;53.128;17.966;2023-06-10T10:17:58;101594.55;;;26.50;29.40
76137;BME280;68622;53.128;17.966;2023-06-10T10:20:29;101592.20;;;26.35;29.62
76137;BME280;68622;53.128;17.966;2023-06-10T10:22:58;101593.13;;;26.42;30.15
76137;BME280;68622;53.128;17.966;2023-06-10T10:25:31;101599.13;;;26.34;29.98
76137;BME280;68622;53.128;17.966;2023-06-10T10:28:11;101609.41;;;26.37;29.85
76137;BME280;68622;53.128;17.966;2023-06-10T10:30:50;101600.15;;;26.29;29.23
76137;BME280;68622;53.128;17.966;2023-06-10T10:33:20;101595.31;;;26.29;29.64
76137;BME280;68622;53.128;17.966;2023-06-10T10:35:49;101595.73;;;26.35;29.81
76137;BME280;68622;53.128;17.966;2023-06-10T10:38:16;101593.48;;;26.43;30.06
76137;BME280;68622;53.128;17.966;2023-06-10T10:40:44;101593.33;;;26.47;30.23
76137;BME280;68622;53.128;17.966;2023-06-10T10:43:13;101593.26;;;26.51;29.60
76137;BME280;68622;53.128;17.966;2023-06-10T10:45:40;101587.98;;;26.60;29.48
76137;BME280;68622;53.128;17.966;2023-06-10T10:48:09;101582.01;;;26.60;29.56
76137;BME280;68622;53.128;17.966;2023-06-10T10:50:38;101584.98;;;26.71;29.75
76137;BME280;68622;53.128;17.966;2023-06-10T10:53:05;101581.10;;;26.64;28.37
76137;BME280;68622;53.128;17.966;2023-06-10T10:55:32;101589.80;;;26.71;28.81
76137;BME280;68622;53.128;17.966;2023-06-10T10:58:07;101581.86;;;26.71;28.53
76137;BME280;68622;53.128;17.966;2023-06-10T11:00:42;101586.08;;;26.63;28.32
76137;BME280;68622;53.128;17.966;2023-06-10T11:03:14;101587.40;;;26.63;28.00
76137;BME280;68622;53.128;17.966;2023-06-10T11:05:44;101589.39;;;26.69;28.02
76137;BME280;68622;53.128;17.966;2023-06-10T11:08:15;101586.77;;;26.73;27.35
76137;BME280;68622;53.128;17.966;2023-06-10T11:11:21;101581.90;;;26.67;26.89
76137;BME280;68622;53.128;17.966;2023-06-10T11:14:26;101577.71;;;26.78;27.26
76137;BME280;68622;53.128;17.966;2023-06-10T11:16:57;101580.53;;;26.90;27.54
76137;BME280;68622;53.128;17.966;2023-06-10T11:19:34;101580.63;;;26.81;26.29
76137;BME280;68622;53.128;17.966;2023-06-10T11:22:03;101584.09;;;26.78;26.36
76137;BME280;68622;53.128;17.966;2023-06-10T11:24:30;101585.89;;;26.71;26.00
76137;BME280;68622;53.128;17.966;2023-06-10T11:32:31;101584.84;;;26.72;25.78
76137;BME280;68622;53.128;17.966;2023-06-10T11:34:59;101584.58;;;26.76;25.73
76137;BME280;68622;53.128;17.966;2023-06-10T11:37:27;101582.20;;;26.75;25.36
76137;BME280;68622;53.128;17.966;2023-06-10T11:39:54;101579.45;;;26.81;25.07
76137;BME280;68622;53.128;17.966;2023-06-10T11:42:22;101569.39;;;26.73;24.78
76137;BME280;68622;53.128;17.966;2023-06-10T11:44:53;101567.20;;;26.77;24.86
76137;BME280;68622;53.128;17.966;2023-06-10T11:47:20;101565.48;;;26.78;24.66
76137;BME280;68622;53.128;17.966;2023-06-10T11:49:57;101573.72;;;26.75;24.86
76137;BME280;68622;53.128;17.966;2023-06-10T11:52:28;101566.14;;;26.74;25.02
76137;BME280;68622;53.128;17.966;2023-06-10T11:54:56;101568.61;;;26.73;25.00
76137;BME280;68622;53.128;17.966;2023-06-10T11:57:22;101568.06;;;26.70;24.84
76137;BME280;68622;53.128;17.966;2023-06-10T11:59:49;101569.05;;;26.78;24.79
76137;BME280;68622;53.128;17.966;2023-06-10T12:02:17;101564.48;;;26.67;24.62
76137;BME280;68622;53.128;17.966;2023-06-10T12:04:43;101566.55;;;26.70;25.04
76137;BME280;68622;53.128;17.966;2023-06-10T12:07:17;101565.98;;;26.71;24.80
76137;BME280;68622;53.128;17.966;2023-06-10T12:09:45;101565.08;;;26.72;25.24
76137;BME280;68622;53.128;17.966;2023-06-10T12:12:12;101558.59;;;26.73;25.09
76137;BME280;68622;53.128;17.966;2023-06-10T12:14:52;101557.52;;;26.77;24.87
76137;BME280;68622;53.128;17.966;2023-06-10T12:20:07;101561.29;;;26.81;25.08
76137;BME280;68622;53.128;17.966;2023-06-10T12:22:42;101565.48;;;26.78;24.66
76137;BME280;68622;53.128;17.966;2023-06-10T12:25:10;101558.06;;;26.75;24.97
76137;BME280;68622;53.128;17.966;2023-06-10T12:27:37;101552.60;;;26.80;24.96
76137;BME280;68622;53.128;17.966;2023-06-10T12:30:05;101554.93;;;26.81;24.78
76137;BME280;68622;53.128;17.966;2023-06-10T12:32:43;101559.96;;;26.75;24.43
76137;BME280;68622;53.128;17.966;2023-06-10T12:35:16;101549.50;;;26.80;24.23
76137;BME280;68622;53.128;17.966;2023-06-10T12:37:55;101552.61;;;26.71;23.72
76137;BME280;68622;53.128;17.966;2023-06-10T12:40:34;101556.11;;;26.74;23.84
76137;BME280;68622;53.128;17.966;2023-06-10T12:43:02;101553.66;;;26.80;24.17
76137;BME280;68622;53.128;17.966;2023-06-10T12:45:33;101556.60;;;26.78;23.84
76137;BME280;68622;53.128;17.966;2023-06-10T12:48:05;101548.48;;;26.80;24.03
76137;BME280;68622;53.128;17.966;2023-06-10T12:50:33;101550.04;;;26.74;23.84
76137;BME280;68622;53.128;17.966;2023-06-10T12:52:59;101546.56;;;26.76;23.56
76137;BME280;68622;53.128;17.966;2023-06-10T12:55:27;101551.81;;;26.80;23.19
76137;BME280;68622;53.128;17.966;2023-06-10T12:57:55;101549.92;;;26.85;22.92
76137;BME280;68622;53.128;17.966;2023-06-10T13:00:23;101550.30;;;26.80;22.18
76137;BME280;68622;53.128;17.966;2023-06-10T13:02:52;101546.98;;;26.82;22.09
76137;BME280;68622;53.128;17.966;2023-06-10T13:05:19;101549.57;;;26.79;22.25